createdAt,value
2022-09-23T00:00:14.170Z,88.92
2022-09-23T00:01:14.265Z,88.92
2022-09-23T00:02:14.165Z,88.82
2022-09-23T00:03:14.116Z,88.92
2022-09-23T00:04:14.107Z,88.56
2022-09-23T00:05:14.096Z,88.35
2022-09-23T00:06:14.115Z,88.56
2022-09-23T00:07:14.095Z,87.93
2022-09-23T00:08:14.066Z,87.83
2022-09-23T00:09:14.046Z,87.42
2022-09-23T00:10:14.054Z,87.21
2022-09-23T00:11:14.036Z,87.11
2022-09-23T00:12:14.055Z,86.49
2022-09-23T00:13:14.007Z,86.80
2022-09-23T00:14:13.996Z,86.32
2022-09-23T00:15:13.997Z,86.22
2022-09-23T00:16:13.978Z,85.91
2022-09-23T00:17:14.036Z,85.81
2022-09-23T00:18:13.968Z,85.81
2022-09-23T00:19:13.926Z,85.71
2022-09-23T00:20:13.933Z,85.09
2022-09-23T00:21:13.913Z,84.47
2022-09-23T00:22:13.920Z,84.47
2022-09-23T00:23:13.938Z,84.06
2022-09-23T00:24:13.896Z,84.09
2022-09-23T00:25:13.879Z,83.37
2022-09-23T00:26:13.858Z,83.33
2022-09-23T00:27:13.845Z,83.23
2022-09-23T00:28:13.825Z,83.27
2022-09-23T00:29:13.856Z,82.71
2022-09-23T00:30:13.827Z,82.82
2022-09-23T00:31:13.901Z,82.82
2022-09-23T00:32:14.446Z,82.86
2022-09-23T00:33:13.807Z,82.65
2022-09-23T00:34:13.786Z,82.65
2022-09-23T00:35:13.775Z,82.55
2022-09-23T00:36:13.735Z,82.03
2022-09-23T00:37:13.726Z,82.03
2022-09-23T00:38:13.715Z,81.62
2022-09-23T00:39:13.697Z,81.21
2022-09-23T00:40:13.774Z,81.21
2022-09-23T00:41:13.695Z,81.62
2022-09-23T00:42:13.695Z,81.93
2022-09-23T00:43:13.666Z,81.31
2022-09-23T00:44:13.666Z,81.00
2022-09-23T00:45:13.626Z,80.90
2022-09-23T00:46:13.748Z,80.90
2022-09-23T00:47:13.686Z,81.21
2022-09-23T00:48:13.603Z,81.72
2022-09-23T00:49:13.588Z,81.31
2022-09-23T00:50:13.579Z,81.14
2022-09-23T00:51:13.559Z,81.14
2022-09-23T00:52:13.553Z,80.73
2022-09-23T00:53:13.564Z,79.80
2022-09-23T00:54:13.535Z,79.49
2022-09-23T00:55:13.632Z,79.38
2022-09-23T00:56:13.526Z,79.18
2022-09-23T00:57:13.494Z,79.59
2022-09-23T00:58:13.516Z,79.69
2022-09-23T00:59:13.475Z,79.01
2022-09-23T01:00:13.485Z,77.77
2022-09-23T01:01:13.514Z,77.63
2022-09-23T01:02:13.486Z,77.73
2022-09-23T01:03:13.434Z,78.05
2022-09-23T01:04:13.585Z,78.08
2022-09-23T01:05:13.424Z,77.63
2022-09-23T01:06:13.406Z,76.60
2022-09-23T01:07:13.386Z,77.32
2022-09-23T01:08:13.384Z,77.84
2022-09-23T01:09:13.357Z,77.94
2022-09-23T01:10:13.386Z,78.45
2022-09-23T01:11:13.375Z,78.56
2022-09-23T01:12:13.389Z,78.87
2022-09-23T01:13:13.315Z,79.80
2022-09-23T01:14:13.306Z,80.32
2022-09-23T01:15:13.292Z,80.21
2022-09-23T01:16:13.395Z,80.11
2022-09-23T01:17:13.313Z,80.11
2022-09-23T01:18:13.263Z,79.90
2022-09-23T01:19:13.272Z,80.00
2022-09-23T01:20:13.234Z,80.62
2022-09-23T01:21:13.223Z,80.83
2022-09-23T01:22:13.246Z,80.83
2022-09-23T01:23:13.202Z,80.42
2022-09-23T01:24:13.192Z,80.32
2022-09-23T01:25:13.188Z,80.42
2022-09-23T01:26:13.185Z,80.42
2022-09-23T01:27:13.155Z,80.15
2022-09-23T01:28:13.183Z,79.63
2022-09-23T01:29:13.132Z,79.52
2022-09-23T01:30:13.121Z,79.01
2022-09-23T01:31:13.172Z,78.80
2022-09-23T01:32:13.103Z,78.70
2022-09-23T01:33:13.083Z,78.39
2022-09-23T01:34:13.094Z,78.59
2022-09-23T01:35:13.071Z,78.28
2022-09-23T01:36:13.050Z,78.01
2022-09-23T01:37:13.053Z,77.70
2022-09-23T01:38:13.022Z,77.70
2022-09-23T01:39:13.052Z,77.60
2022-09-23T01:40:13.089Z,77.19
2022-09-23T01:41:12.985Z,76.77
2022-09-23T01:42:12.982Z,76.36
2022-09-23T01:43:12.972Z,76.36
2022-09-23T01:44:13.073Z,75.88
2022-09-23T01:45:12.975Z,75.57
2022-09-23T01:46:19.988Z,75.15
2022-09-23T01:47:12.918Z,75.12
2022-09-23T01:48:12.954Z,75.15
2022-09-23T01:49:12.910Z,74.74
2022-09-23T01:50:12.898Z,74.40
2022-09-23T01:51:12.907Z,74.71
2022-09-23T01:52:12.867Z,74.40
2022-09-23T01:53:12.856Z,74.60
2022-09-23T01:54:12.849Z,74.71
2022-09-23T01:55:12.840Z,74.40
2022-09-23T01:56:12.827Z,74.81
2022-09-23T01:57:12.829Z,74.50
2022-09-23T01:58:12.798Z,74.91
2022-09-23T01:59:12.789Z,75.32
2022-09-23T02:00:12.785Z,75.63
2022-09-23T02:01:12.849Z,75.43
2022-09-23T02:02:12.801Z,75.43
2022-09-23T02:03:12.746Z,74.91
2022-09-23T02:04:12.737Z,74.91
2022-09-23T02:05:12.726Z,74.71
2022-09-23T02:06:12.717Z,75.12
2022-09-23T02:07:12.728Z,74.71
2022-09-23T02:08:12.716Z,75.22
2022-09-23T02:09:12.919Z,75.32
2022-09-23T02:10:12.667Z,75.74
2022-09-23T02:11:12.656Z,75.43
2022-09-23T02:12:12.648Z,75.78
2022-09-23T02:13:12.636Z,75.67
2022-09-23T02:14:12.645Z,75.67
2022-09-23T02:15:12.606Z,75.05
2022-09-23T02:16:12.626Z,75.36
2022-09-23T02:17:12.599Z,75.26
2022-09-23T02:18:12.576Z,75.15
2022-09-23T02:19:12.586Z,75.15
2022-09-23T02:20:12.557Z,75.15
2022-09-23T02:21:12.545Z,75.46
2022-09-23T02:22:12.536Z,75.05
2022-09-23T02:23:12.526Z,74.95
2022-09-23T02:24:12.515Z,74.57
2022-09-23T02:25:12.543Z,74.46
2022-09-23T02:26:12.497Z,74.05
2022-09-23T02:27:12.475Z,73.91
2022-09-23T02:28:12.477Z,73.91
2022-09-23T02:29:12.460Z,74.02
2022-09-23T02:30:12.465Z,74.02
2022-09-23T02:31:12.437Z,74.02
2022-09-23T02:32:12.493Z,74.26
2022-09-23T02:33:12.415Z,74.05
2022-09-23T02:34:12.406Z,73.84
2022-09-23T02:35:12.396Z,74.15
2022-09-23T02:36:12.406Z,74.26
2022-09-23T02:37:12.366Z,74.67
2022-09-23T02:38:12.364Z,74.26
2022-09-23T02:39:12.349Z,74.15
2022-09-23T02:40:12.410Z,73.74
2022-09-23T02:41:12.325Z,73.67
2022-09-23T02:42:12.334Z,73.57
2022-09-23T02:43:12.305Z,73.57
2022-09-23T02:44:12.296Z,73.15
2022-09-23T02:45:12.283Z,72.33
2022-09-23T02:46:12.377Z,72.33
2022-09-23T02:47:12.274Z,71.60
2022-09-23T02:48:12.273Z,71.70
2022-09-23T02:49:12.236Z,71.29
2022-09-23T02:50:12.224Z,71.19
2022-09-23T02:51:12.215Z,71.08
2022-09-23T02:52:12.204Z,70.77
2022-09-23T02:53:12.193Z,70.98
2022-09-23T02:54:12.245Z,70.77
2022-09-23T02:55:12.172Z,71.19
2022-09-23T02:56:12.165Z,71.08
2022-09-23T02:57:12.143Z,70.87
2022-09-23T02:58:12.136Z,70.77
2022-09-23T02:59:12.134Z,70.57
2022-09-23T03:00:12.133Z,70.47
2022-09-23T03:01:12.160Z,70.67
2022-09-23T03:02:12.167Z,70.05
2022-09-23T03:03:12.083Z,70.05
2022-09-23T03:04:12.078Z,69.43
2022-09-23T03:05:12.086Z,69.74
2022-09-23T03:06:12.053Z,70.36
2022-09-23T03:07:12.042Z,70.57
2022-09-23T03:08:12.024Z,70.70
2022-09-23T03:09:12.013Z,70.50
2022-09-23T03:10:12.002Z,70.70
2022-09-23T03:11:12.022Z,70.50
2022-09-23T03:12:11.983Z,70.39
2022-09-23T03:13:11.973Z,70.29
2022-09-23T03:14:11.964Z,69.67
2022-09-23T03:15:11.952Z,69.77
2022-09-23T03:16:11.989Z,69.87
2022-09-23T03:17:11.953Z,69.15
2022-09-23T03:18:11.913Z,69.35
2022-09-23T03:19:11.904Z,69.04
2022-09-23T03:20:11.893Z,68.43
2022-09-23T03:21:11.883Z,68.32
2022-09-23T03:22:11.872Z,68.43
2022-09-23T03:23:11.882Z,68.74
2022-09-23T03:24:11.852Z,68.63
2022-09-23T03:25:11.843Z,68.84
2022-09-23T03:26:11.825Z,69.04
2022-09-23T03:27:11.820Z,69.15
2022-09-23T03:28:11.825Z,69.15
2022-09-23T03:29:11.794Z,69.25
2022-09-23T03:30:11.782Z,68.94
2022-09-23T03:31:11.907Z,68.84
2022-09-23T03:32:11.762Z,68.53
2022-09-23T03:33:11.751Z,68.74
2022-09-23T03:34:11.760Z,68.84
2022-09-23T03:35:11.731Z,67.91
2022-09-23T03:36:11.717Z,68.94
2022-09-23T03:37:11.713Z,68.74
2022-09-23T03:38:11.692Z,69.25
2022-09-23T03:39:11.711Z,68.94
2022-09-23T03:40:11.706Z,69.04
2022-09-23T03:41:11.664Z,68.84
2022-09-23T03:42:11.650Z,68.70
2022-09-23T03:43:11.644Z,69.12
2022-09-23T03:44:11.631Z,69.22
2022-09-23T03:45:11.639Z,69.22
2022-09-23T03:46:11.635Z,69.12
2022-09-23T03:47:11.602Z,69.84
2022-09-23T03:48:11.589Z,69.43
2022-09-23T03:49:11.575Z,69.74
2022-09-23T03:50:11.592Z,69.64
2022-09-23T03:51:11.552Z,69.74
2022-09-23T03:52:11.539Z,70.05
2022-09-23T03:53:11.531Z,70.05
2022-09-23T03:54:11.521Z,70.05
2022-09-23T03:55:11.513Z,69.74
2022-09-23T03:56:11.522Z,70.05
2022-09-23T03:57:11.492Z,69.84
2022-09-23T03:58:11.471Z,69.95
2022-09-23T03:59:11.470Z,70.15
2022-09-23T04:00:11.450Z,70.36
2022-09-23T04:01:11.512Z,69.74
2022-09-23T04:02:12.195Z,70.05
2022-09-23T04:03:12.028Z,69.64
2022-09-23T04:04:11.409Z,69.53
2022-09-23T04:05:11.399Z,69.74
2022-09-23T04:06:11.389Z,69.32
2022-09-23T04:07:11.407Z,69.53
2022-09-23T04:08:11.362Z,69.12
2022-09-23T04:09:11.360Z,69.32
2022-09-23T04:10:11.339Z,69.32
2022-09-23T04:11:11.331Z,69.53
2022-09-23T04:12:11.319Z,69.22
2022-09-23T04:13:11.338Z,69.53
2022-09-23T04:14:11.299Z,69.64
2022-09-23T04:15:11.289Z,69.22
2022-09-23T04:16:11.302Z,70.26
2022-09-23T04:17:11.269Z,70.26
2022-09-23T04:18:11.252Z,70.36
2022-09-23T04:19:11.855Z,70.26
2022-09-23T04:20:11.230Z,70.67
2022-09-23T04:21:11.227Z,70.57
2022-09-23T04:22:11.209Z,70.87
2022-09-23T04:23:11.209Z,70.47
2022-09-23T04:24:11.188Z,70.57
2022-09-23T04:25:11.201Z,70.87
2022-09-23T04:26:11.167Z,71.08
2022-09-23T04:27:11.159Z,71.29
2022-09-23T04:28:11.140Z,70.98
2022-09-23T04:29:11.139Z,71.39
2022-09-23T04:30:11.119Z,71.19
2022-09-23T04:31:11.153Z,71.29
2022-09-23T04:32:11.098Z,71.19
2022-09-23T04:33:11.088Z,71.81
2022-09-23T04:34:11.088Z,71.29
2022-09-23T04:35:11.081Z,71.70
2022-09-23T04:36:11.081Z,71.81
2022-09-23T04:37:11.051Z,71.91
2022-09-23T04:38:11.029Z,71.91
2022-09-23T04:39:11.029Z,71.50
2022-09-23T04:40:11.047Z,71.39
2022-09-23T04:41:11.008Z,71.70
2022-09-23T04:42:11.008Z,71.50
2022-09-23T04:43:13.576Z,71.60
2022-09-23T04:44:10.968Z,71.70
2022-09-23T04:45:10.957Z,71.91
2022-09-23T04:46:10.946Z,71.39
2022-09-23T04:47:10.937Z,71.29
2022-09-23T04:48:10.937Z,71.60
2022-09-23T04:49:10.982Z,71.50
2022-09-23T04:50:10.905Z,71.91
2022-09-23T04:51:10.896Z,71.70
2022-09-23T04:52:10.878Z,71.91
2022-09-23T04:53:11.107Z,72.02
2022-09-23T04:54:10.857Z,72.02
2022-09-23T04:55:11.426Z,72.12
2022-09-23T04:56:10.836Z,72.43
2022-09-23T04:57:10.845Z,72.53
2022-09-23T04:58:10.815Z,72.53
2022-09-23T04:59:10.918Z,72.53
2022-09-23T05:00:10.796Z,72.53
2022-09-23T05:01:10.825Z,72.67
2022-09-23T05:02:10.833Z,72.67
2022-09-23T05:03:10.758Z,72.25
2022-09-23T05:04:10.766Z,71.73
2022-09-23T05:05:10.737Z,71.12
2022-09-23T05:06:10.728Z,71.01
2022-09-23T05:07:10.722Z,70.70
2022-09-23T05:08:10.699Z,70.87
2022-09-23T05:09:10.763Z,71.08
2022-09-23T05:10:10.707Z,71.19
2022-09-23T05:11:10.674Z,71.29
2022-09-23T05:12:10.656Z,71.50
2022-09-23T05:13:10.727Z,71.43
2022-09-23T05:14:10.639Z,71.43
2022-09-23T05:15:10.627Z,71.63
2022-09-23T05:16:10.660Z,71.73
2022-09-23T05:17:10.626Z,71.73
2022-09-23T05:18:10.588Z,71.43
2022-09-23T05:19:10.623Z,70.91
2022-09-23T05:20:10.574Z,71.01
2022-09-23T05:21:10.585Z,70.91
2022-09-23T05:22:10.547Z,70.81
2022-09-23T05:23:10.545Z,70.87
2022-09-23T05:24:10.526Z,71.08
2022-09-23T05:25:10.518Z,70.87
2022-09-23T05:26:10.504Z,70.77
2022-09-23T05:27:10.518Z,70.57
2022-09-23T05:28:10.483Z,70.57
2022-09-23T05:29:10.538Z,70.77
2022-09-23T05:30:10.463Z,70.67
2022-09-23T05:31:10.483Z,70.67
2022-09-23T05:32:10.437Z,70.64
2022-09-23T05:33:10.454Z,71.05
2022-09-23T05:34:10.415Z,71.15
2022-09-23T05:35:10.405Z,71.47
2022-09-23T05:36:10.404Z,72.29
2022-09-23T05:37:10.384Z,72.67
2022-09-23T05:38:10.373Z,73.39
2022-09-23T05:39:10.440Z,73.71
2022-09-23T05:40:10.416Z,74.74
2022-09-23T05:41:10.415Z,75.63
2022-09-23T05:42:10.332Z,76.26
2022-09-23T05:43:10.436Z,76.36
2022-09-23T05:44:10.534Z,77.50
2022-09-23T05:45:10.313Z,77.87
2022-09-23T05:46:10.310Z,78.91
2022-09-23T05:47:10.330Z,79.42
2022-09-23T05:48:10.255Z,80.97
2022-09-23T05:49:10.423Z,81.70
2022-09-23T05:50:10.253Z,82.59
2022-09-23T05:51:10.223Z,82.89
2022-09-23T05:52:10.212Z,82.79
2022-09-23T05:53:10.207Z,83.20
2022-09-23T05:54:10.304Z,83.58
2022-09-23T05:55:10.253Z,83.78
2022-09-23T05:56:10.188Z,84.51
2022-09-23T05:57:10.154Z,85.13
2022-09-23T05:58:10.133Z,85.23
2022-09-23T05:59:10.202Z,85.30
2022-09-23T06:00:10.116Z,85.91
2022-09-23T06:01:10.103Z,86.84
2022-09-23T06:02:10.170Z,87.35
2022-09-23T06:03:10.143Z,88.18
2022-09-23T06:04:10.114Z,88.18
2022-09-23T06:05:10.063Z,88.24
2022-09-23T06:06:10.044Z,88.56
2022-09-23T06:07:10.069Z,89.28
2022-09-23T06:08:10.025Z,89.75
2022-09-23T06:09:10.081Z,90.26
2022-09-23T06:10:10.000Z,89.95
2022-09-23T06:11:09.991Z,90.47
2022-09-23T06:12:09.975Z,90.78
2022-09-23T06:13:10.025Z,91.05
2022-09-23T06:14:09.954Z,91.97
2022-09-23T06:15:09.952Z,91.97
2022-09-23T06:16:09.973Z,92.29
2022-09-23T06:17:09.923Z,93.27
2022-09-23T06:18:09.904Z,93.48
2022-09-23T06:19:09.944Z,92.76
2022-09-23T06:20:09.888Z,93.16
2022-09-23T06:21:09.881Z,92.82
2022-09-23T06:22:09.865Z,92.40
2022-09-23T06:23:10.534Z,94.26
2022-09-23T06:24:10.194Z,94.87
2022-09-23T06:25:09.861Z,95.70
2022-09-23T06:26:09.830Z,96.00
2022-09-23T06:27:09.813Z,95.86
2022-09-23T06:28:09.795Z,96.99
2022-09-23T06:29:09.782Z,98.38
2022-09-23T06:30:09.793Z,98.43
2022-09-23T06:31:13.068Z,98.63
2022-09-23T06:32:09.753Z,98.18
2022-09-23T06:33:09.741Z,98.59
2022-09-23T06:34:12.312Z,97.66
2022-09-23T06:35:16.691Z,97.72
2022-09-23T06:36:10.726Z,98.65
2022-09-23T06:37:17.961Z,98.54
2022-09-23T06:38:10.693Z,99.99
2022-09-23T06:39:09.673Z,99.52
2022-09-23T06:40:09.711Z,99.52
2022-09-23T06:41:09.642Z,99.32
2022-09-23T06:42:09.654Z,99.21
2022-09-23T06:43:09.642Z,99.01
2022-09-23T06:44:09.641Z,99.83
2022-09-23T06:45:09.602Z,99.93
2022-09-23T06:46:09.653Z,99.99
2022-09-23T06:47:09.584Z,99.99
2022-09-23T06:48:09.622Z,99.99
2022-09-23T06:49:09.552Z,99.99
2022-09-23T06:50:09.543Z,99.99
2022-09-23T06:51:09.533Z,99.99
2022-09-23T06:52:09.523Z,99.99
2022-09-23T06:53:09.977Z,99.99
2022-09-23T06:54:09.598Z,99.99
2022-09-23T06:55:09.492Z,99.99
2022-09-23T06:56:09.474Z,99.99
2022-09-23T06:57:09.623Z,99.99
2022-09-23T06:58:09.454Z,99.99
2022-09-23T06:59:09.461Z,99.99
2022-09-23T07:00:09.430Z,99.99
2022-09-23T07:01:09.586Z,99.99
2022-09-23T07:02:09.480Z,99.99
2022-09-23T07:03:09.403Z,99.99
2022-09-23T07:04:09.406Z,99.99
2022-09-23T07:05:09.373Z,99.99
2022-09-23T07:06:09.388Z,99.99
2022-09-23T07:07:09.353Z,99.51
2022-09-23T07:08:09.335Z,99.87
2022-09-23T07:09:09.380Z,99.93
2022-09-23T07:10:09.334Z,99.72
2022-09-23T07:11:09.306Z,98.86
2022-09-23T07:12:09.292Z,97.64
2022-09-23T07:13:11.916Z,95.86
2022-09-23T07:14:10.272Z,92.45
2022-09-23T07:15:09.293Z,88.90
2022-09-23T07:16:09.327Z,84.61
2022-09-23T07:17:09.235Z,81.41
2022-09-23T07:18:09.224Z,83.86
2022-09-23T07:19:09.211Z,82.84
2022-09-23T07:20:09.203Z,80.36
2022-09-23T07:21:09.213Z,79.30
2022-09-23T07:22:09.184Z,78.05
2022-09-23T07:23:09.164Z,77.09
2022-09-23T07:24:09.212Z,74.11
2022-09-23T07:25:09.145Z,71.53
2022-09-23T07:26:09.135Z,71.06
2022-09-23T07:27:09.144Z,72.28
2022-09-23T07:28:09.105Z,71.67
2022-09-23T07:29:09.103Z,72.38
2022-09-23T07:30:16.618Z,71.26
2022-09-23T07:31:10.144Z,71.57
2022-09-23T07:32:13.806Z,71.16
2022-09-23T07:33:26.261Z,70.82
2022-09-23T07:34:10.096Z,69.81
2022-09-23T07:35:09.025Z,69.91
2022-09-23T07:36:09.075Z,69.57
2022-09-23T07:37:09.004Z,69.13
2022-09-23T07:38:09.015Z,68.49
2022-09-23T07:39:09.021Z,67.44
2022-09-23T07:40:09.024Z,66.53
2022-09-23T07:41:08.984Z,66.80
2022-09-23T07:42:08.956Z,65.99
2022-09-23T07:43:08.945Z,65.73
2022-09-23T07:44:08.961Z,65.22
2022-09-23T07:45:08.918Z,64.07
2022-09-23T07:46:16.078Z,63.40
2022-09-23T07:47:08.905Z,64.34
2022-09-23T07:48:08.886Z,64.75
2022-09-23T07:49:08.878Z,64.88
2022-09-23T07:50:08.884Z,65.79
2022-09-23T07:51:08.845Z,65.62
2022-09-23T07:52:08.839Z,65.62
2022-09-23T07:53:08.825Z,65.59
2022-09-23T07:54:09.047Z,65.45
2022-09-23T07:55:08.798Z,64.61
2022-09-23T07:56:08.808Z,63.67
2022-09-23T07:57:08.776Z,63.44
2022-09-23T07:58:08.778Z,62.02
2022-09-23T07:59:09.111Z,62.19
2022-09-23T08:00:08.747Z,61.66
2022-09-23T08:01:08.795Z,61.43
2022-09-23T08:02:08.716Z,60.52
2022-09-23T08:03:08.756Z,59.99
2022-09-23T08:04:08.696Z,59.99
2022-09-23T08:05:08.685Z,59.35
2022-09-23T08:06:08.677Z,58.98
2022-09-23T08:07:08.677Z,58.75
2022-09-23T08:08:08.647Z,58.42
2022-09-23T08:09:08.648Z,58.42
2022-09-23T08:10:08.638Z,58.75
2022-09-23T08:11:08.619Z,58.65
2022-09-23T08:12:10.641Z,58.95
2022-09-23T08:13:09.608Z,58.72
2022-09-23T08:14:08.587Z,57.78
2022-09-23T08:15:08.576Z,57.08
2022-09-23T08:16:08.654Z,56.95
2022-09-23T08:17:08.548Z,56.52
2022-09-23T08:18:08.589Z,55.41
2022-09-23T08:19:08.546Z,55.69
2022-09-23T08:20:08.519Z,55.16
2022-09-23T08:21:08.501Z,54.88
2022-09-23T08:22:08.489Z,54.18
2022-09-23T08:23:08.480Z,53.58
2022-09-23T08:24:08.498Z,54.23
2022-09-23T08:25:10.089Z,54.83
2022-09-23T08:26:15.664Z,55.14
2022-09-23T08:27:09.430Z,54.53
2022-09-23T08:28:08.423Z,54.41
2022-09-23T08:29:08.431Z,54.41
2022-09-23T08:30:08.454Z,54.10
2022-09-23T08:31:08.490Z,54.30
2022-09-23T08:32:08.381Z,54.41
2022-09-23T08:33:08.363Z,54.68
2022-09-23T08:34:08.395Z,54.18
2022-09-23T08:35:08.350Z,53.83
2022-09-23T08:36:08.351Z,52.84
2022-09-23T08:37:08.312Z,53.72
2022-09-23T08:38:08.312Z,52.89
2022-09-23T08:39:08.293Z,52.34
2022-09-23T08:40:08.333Z,51.51
2022-09-23T08:41:08.273Z,51.19
2022-09-23T08:42:08.282Z,50.31
2022-09-23T08:43:08.252Z,51.21
2022-09-23T08:44:08.243Z,50.71
2022-09-23T08:45:08.231Z,50.09
2022-09-23T08:46:08.244Z,49.46
2022-09-23T08:47:08.226Z,48.46
2022-09-23T08:48:12.670Z,48.75
2022-09-23T08:49:08.184Z,48.58
2022-09-23T08:50:08.177Z,50.01
2022-09-23T08:51:08.156Z,50.29
2022-09-23T08:52:08.145Z,50.24
2022-09-23T08:53:08.215Z,49.01
2022-09-23T08:54:08.126Z,48.31
2022-09-23T08:55:08.114Z,49.19
2022-09-23T08:56:08.107Z,48.38
2022-09-23T08:57:08.089Z,48.49
2022-09-23T08:58:24.351Z,47.78
2022-09-23T08:59:09.147Z,48.35
2022-09-23T09:00:08.057Z,49.76
2022-09-23T09:01:08.103Z,49.93
2022-09-23T09:02:08.243Z,49.31
2022-09-23T09:03:08.026Z,48.33
2022-09-23T09:04:12.395Z,49.71
2022-09-23T09:05:08.000Z,51.06
2022-09-23T09:06:07.988Z,51.26
2022-09-23T09:07:34.710Z,50.73
2022-09-23T09:08:08.969Z,50.56
2022-09-23T09:09:07.951Z,50.98
2022-09-23T09:10:07.978Z,51.71
2022-09-23T09:11:07.934Z,52.49
2022-09-23T09:12:07.920Z,52.26
2022-09-23T09:13:07.910Z,51.59
2022-09-23T09:14:07.900Z,52.94
2022-09-23T09:15:07.880Z,53.25
2022-09-23T09:16:07.972Z,53.67
2022-09-23T09:17:07.862Z,54.75
2022-09-23T09:18:07.973Z,53.32
2022-09-23T09:19:07.924Z,53.12
2022-09-23T09:20:07.831Z,52.57
2022-09-23T09:21:07.812Z,52.17
2022-09-23T09:22:07.832Z,52.57
2022-09-23T09:23:07.800Z,53.17
2022-09-23T09:24:07.830Z,52.49
2022-09-23T09:25:07.795Z,52.49
2022-09-23T09:26:07.772Z,52.92
2022-09-23T09:27:07.744Z,53.55
2022-09-23T09:28:07.755Z,54.28
2022-09-23T09:29:23.837Z,55.11
2022-09-23T09:30:08.722Z,54.43
2022-09-23T09:31:07.752Z,56.12
2022-09-23T09:32:07.693Z,57.56
2022-09-23T09:33:07.708Z,58.80
2022-09-23T09:34:07.676Z,59.64
2022-09-23T09:35:07.674Z,60.68
2022-09-23T09:36:07.668Z,61.49
2022-09-23T09:37:07.738Z,60.78
2022-09-23T09:38:07.625Z,60.85
2022-09-23T09:39:07.715Z,60.32
2022-09-23T09:40:07.662Z,59.91
2022-09-23T09:41:07.587Z,60.62
2022-09-23T09:42:07.582Z,60.02
2022-09-23T09:43:07.566Z,59.89
2022-09-23T09:44:07.645Z,59.48
2022-09-23T09:45:07.555Z,59.99
2022-09-23T09:46:07.651Z,59.18
2022-09-23T09:47:07.519Z,59.41
2022-09-23T09:48:07.515Z,59.21
2022-09-23T09:49:07.563Z,60.42
2022-09-23T09:50:07.516Z,60.19
2022-09-23T09:51:07.477Z,59.38
2022-09-23T09:52:07.466Z,59.78
2022-09-23T09:53:07.403Z,58.87
2022-09-23T09:54:07.393Z,59.18
2022-09-23T09:55:07.373Z,59.51
2022-09-23T09:56:07.394Z,58.78
2022-09-23T09:57:07.351Z,59.18
2022-09-23T09:58:07.342Z,58.98
2022-09-23T09:59:07.426Z,59.18
2022-09-23T10:00:07.321Z,59.28
2022-09-23T10:01:07.356Z,60.19
2022-09-23T10:02:07.310Z,59.81
2022-09-23T10:03:07.284Z,60.25
2022-09-23T10:04:07.358Z,60.96
2022-09-23T10:05:07.259Z,61.05
2022-09-23T10:06:07.251Z,61.23
2022-09-23T10:07:07.257Z,61.56
2022-09-23T10:08:07.230Z,61.25
2022-09-23T10:09:07.258Z,62.10
2022-09-23T10:10:22.050Z,62.50
2022-09-23T10:11:08.190Z,62.77
2022-09-23T10:12:07.180Z,62.16
2022-09-23T10:13:07.205Z,62.57
2022-09-23T10:14:07.160Z,62.64
2022-09-23T10:15:07.275Z,61.94
2022-09-23T10:16:07.141Z,60.82
2022-09-23T10:17:07.202Z,61.03
2022-09-23T10:18:07.117Z,61.80
2022-09-23T10:19:07.221Z,60.80
2022-09-23T10:20:07.087Z,61.07
2022-09-23T10:21:07.079Z,60.66
2022-09-23T10:22:07.069Z,60.16
2022-09-23T10:23:07.056Z,58.34
2022-09-23T10:24:07.051Z,59.05
2022-09-23T10:25:07.090Z,59.18
2022-09-23T10:26:07.030Z,60.19
2022-09-23T10:27:07.018Z,60.60
2022-09-23T10:28:08.115Z,60.49
2022-09-23T10:29:07.057Z,59.69
2022-09-23T10:30:06.986Z,59.76
2022-09-23T10:31:07.043Z,59.66
2022-09-23T10:32:06.962Z,59.45
2022-09-23T10:33:06.950Z,59.58
2022-09-23T10:34:06.941Z,59.48
2022-09-23T10:35:06.930Z,59.99
2022-09-23T10:36:06.943Z,60.52
2022-09-23T10:37:06.903Z,60.32
2022-09-23T10:38:06.901Z,60.32
2022-09-23T10:39:06.990Z,60.93
2022-09-23T10:40:06.955Z,59.51
2022-09-23T10:41:06.914Z,59.31
2022-09-23T10:42:06.877Z,60.35
2022-09-23T10:43:06.858Z,60.85
2022-09-23T10:44:06.946Z,60.52
2022-09-23T10:45:06.826Z,60.52
2022-09-23T10:46:06.864Z,60.19
2022-09-23T10:47:06.819Z,60.09
2022-09-23T10:48:06.790Z,60.19
2022-09-23T10:49:06.783Z,60.77
2022-09-23T10:50:06.871Z,59.12
2022-09-23T10:51:06.766Z,59.33
2022-09-23T10:52:06.758Z,58.52
2022-09-23T10:53:06.763Z,58.39
2022-09-23T10:54:06.939Z,58.19
2022-09-23T10:55:06.714Z,58.49
2022-09-23T10:56:06.714Z,58.26
2022-09-23T10:57:06.694Z,57.96
2022-09-23T10:58:07.475Z,56.85
2022-09-23T10:59:06.695Z,56.04
2022-09-23T11:00:06.666Z,56.04
2022-09-23T11:01:06.675Z,56.45
2022-09-23T11:02:06.647Z,55.84
2022-09-23T11:03:06.637Z,56.77
2022-09-23T11:04:06.725Z,56.60
2022-09-23T11:05:06.677Z,56.88
2022-09-23T11:06:06.601Z,56.48
2022-09-23T11:07:06.591Z,56.81
2022-09-23T11:08:06.581Z,57.31
2022-09-23T11:09:06.571Z,58.01
2022-09-23T11:10:11.521Z,57.28
2022-09-23T11:11:07.543Z,56.48
2022-09-23T11:12:06.544Z,56.24
2022-09-23T11:13:06.523Z,56.35
2022-09-23T11:14:06.654Z,56.62
2022-09-23T11:15:06.504Z,55.31
2022-09-23T11:16:06.514Z,55.31
2022-09-23T11:17:06.519Z,54.91
2022-09-23T11:18:06.474Z,55.31
2022-09-23T11:19:06.486Z,54.30
2022-09-23T11:20:06.456Z,55.49
2022-09-23T11:21:06.455Z,55.19
2022-09-23T11:22:06.428Z,54.58
2022-09-23T11:23:06.408Z,54.86
2022-09-23T11:24:06.539Z,55.46
2022-09-23T11:25:06.409Z,55.66
2022-09-23T11:26:06.379Z,55.26
2022-09-23T11:27:06.398Z,56.16
2022-09-23T11:28:06.360Z,56.04
2022-09-23T11:29:06.343Z,55.23
2022-09-23T11:30:06.340Z,54.73
2022-09-23T11:31:06.393Z,54.83
2022-09-23T11:32:06.309Z,55.33
2022-09-23T11:33:06.327Z,55.61
2022-09-23T11:34:06.302Z,54.80
2022-09-23T11:35:06.278Z,54.80
2022-09-23T11:36:06.263Z,55.21
2022-09-23T11:37:06.254Z,55.28
2022-09-23T11:38:06.234Z,55.88
2022-09-23T11:39:06.246Z,54.78
2022-09-23T11:40:06.256Z,54.48
2022-09-23T11:41:06.246Z,54.10
2022-09-23T11:42:06.197Z,54.30
2022-09-23T11:43:06.186Z,54.30
2022-09-23T11:44:06.311Z,55.31
2022-09-23T11:45:06.160Z,54.91
2022-09-23T11:46:06.297Z,55.71
2022-09-23T11:47:06.138Z,57.02
2022-09-23T11:48:06.121Z,55.51
2022-09-23T11:49:06.116Z,55.74
2022-09-23T11:50:06.119Z,56.14
2022-09-23T11:51:06.090Z,56.16
2022-09-23T11:52:06.078Z,56.16
2022-09-23T11:53:06.068Z,56.77
2022-09-23T11:54:06.100Z,56.47
2022-09-23T11:55:16.812Z,56.84
2022-09-23T11:56:07.051Z,56.64
2022-09-23T11:57:06.021Z,55.56
2022-09-23T11:58:10.713Z,56.47
2022-09-23T11:59:07.221Z,55.87
2022-09-23T12:00:05.982Z,55.87
2022-09-23T12:01:05.971Z,56.20
2022-09-23T12:02:15.449Z,55.89
2022-09-23T12:03:07.074Z,55.66
2022-09-23T12:04:17.981Z,56.07
2022-09-23T12:05:07.053Z,54.75
2022-09-23T12:06:05.914Z,55.56
2022-09-23T12:07:05.904Z,56.14
2022-09-23T12:08:05.915Z,55.54
2022-09-23T12:09:05.884Z,55.33
2022-09-23T12:10:05.867Z,55.03
2022-09-23T12:11:05.855Z,54.83
2022-09-23T12:12:05.846Z,54.13
2022-09-23T12:13:05.837Z,54.23
2022-09-23T12:14:05.890Z,54.80
2022-09-23T12:15:05.817Z,54.50
2022-09-23T12:16:05.800Z,54.17
2022-09-23T12:17:05.828Z,53.80
2022-09-23T12:18:05.787Z,53.50
2022-09-23T12:19:05.819Z,53.20
2022-09-23T12:20:05.748Z,53.80
2022-09-23T12:21:05.740Z,53.90
2022-09-23T12:22:05.719Z,54.38
2022-09-23T12:23:05.720Z,53.77
2022-09-23T12:24:05.755Z,53.05
2022-09-23T12:25:05.709Z,53.27
2022-09-23T12:26:05.682Z,53.47
2022-09-23T12:27:05.672Z,52.77
2022-09-23T12:28:05.660Z,53.30
2022-09-23T12:29:05.651Z,53.60
2022-09-23T12:30:05.659Z,54.40
2022-09-23T12:31:05.795Z,53.40
2022-09-23T12:32:05.613Z,53.97
2022-09-23T12:33:05.614Z,53.20
2022-09-23T12:34:05.592Z,53.80
2022-09-23T12:35:05.591Z,54.20
2022-09-23T12:36:05.600Z,53.90
2022-09-23T12:37:05.585Z,54.50
2022-09-23T12:38:05.543Z,54.30
2022-09-23T12:39:05.542Z,54.71
2022-09-23T12:40:05.573Z,54.30
2022-09-23T12:41:05.524Z,53.80
2022-09-23T12:42:05.528Z,53.52
2022-09-23T12:43:05.495Z,53.72
2022-09-23T12:44:05.483Z,54.53
2022-09-23T12:45:05.477Z,54.20
2022-09-23T12:46:05.469Z,53.70
2022-09-23T12:47:05.454Z,53.57
2022-09-23T12:48:05.455Z,52.67
2022-09-23T12:49:05.425Z,52.14
2022-09-23T12:50:05.416Z,52.14
2022-09-23T12:51:05.407Z,52.12
2022-09-23T12:52:05.386Z,52.01